Time;durP1;ratioP1;P1;durP2;ratioP2;P2;SDS_P1;SDS_P2;PMS_P1;PMS_P2;Temp;Humidity;BMP_temperature;BMP_pressure;BME280_temperature;BME280_humidity;BME280_pressure;Samples;Min_cycle;Max_cycle;Signal;HPM_P1;HPM_P2
2024/02/23 00:02:18;;;;;;;3.17;1.00;;;7.10;42.90;;;;;;5026806;28;20238;-84
2024/02/23 00:04:44;;;;;;;4.73;1.10;;;6.80;45.70;;;;;;5027960;28;20214;-83
2024/02/23 00:07:11;;;;;;;3.63;1.00;;;6.90;46.90;;;;;;5027588;28;20661;-83
2024/02/23 00:09:37;;;;;;;3.77;1.03;;;6.70;43.00;;;;;;5027151;28;20599;-83
2024/02/23 00:12:03;;;;;;;3.03;1.10;;;6.90;43.30;;;;;;5026755;28;20399;-83
2024/02/23 00:14:30;;;;;;;3.43;1.13;;;6.80;39.40;;;;;;5037322;28;20182;-82
2024/02/23 00:16:58;;;;;;;5.27;1.20;;;6.80;26.60;;;;;;5030447;28;20232;-84
2024/02/23 00:19:25;;;;;;;5.97;1.13;;;6.70;25.00;;;;;;5030662;28;20225;-82
2024/02/23 00:21:52;;;;;;;4.30;1.17;;;6.70;20.30;;;;;;5030704;28;20181;-83
2024/02/23 00:24:20;;;;;;;5.37;1.37;;;6.70;13.20;;;;;;5029094;28;20189;-84
2024/02/23 00:26:46;;;;;;;4.43;1.20;;;6.60;13.70;;;;;;5029621;28;20201;-83
2024/02/23 00:29:12;;;;;;;3.30;1.10;;;6.60;15.80;;;;;;5029644;28;20174;-84
2024/02/23 00:31:45;;;;;;;2.77;0.80;;;6.50;15.40;;;;;;5028848;28;20387;-83
2024/02/23 00:34:13;;;;;;;5.20;0.90;;;6.50;16.90;;;;;;5029907;28;20170;-82
2024/02/23 00:36:42;;;;;;;4.60;0.90;;;6.50;19.60;;;;;;5030764;28;20683;-82
2024/02/23 00:39:08;;;;;;;1.63;0.90;;;6.50;22.30;;;;;;5030733;28;20172;-84
2024/02/23 00:41:34;;;;;;;2.00;1.17;;;6.50;31.10;;;;;;5030843;28;20239;-84
2024/02/23 00:44:00;;;;;;;4.33;1.20;;;6.50;40.80;;;;;;5030333;28;20612;-83
2024/02/23 00:46:26;;;;;;;2.93;1.17;;;6.40;50.40;;;;;;5030536;28;20178;-82
2024/02/23 00:48:51;;;;;;;2.60;1.00;;;6.50;51.10;;;;;;5030684;28;20170;-82
2024/02/23 00:51:17;;;;;;;3.10;1.00;;;6.40;52.40;;;;;;5030787;28;20174;-85
2024/02/23 00:53:43;;;;;;;3.47;1.00;;;6.40;56.30;;;;;;5031902;28;20660;-84
2024/02/23 00:56:08;;;;;;;4.30;1.13;;;6.40;63.20;;;;;;5032544;28;20256;-84
2024/02/23 00:58:34;;;;;;;2.60;0.90;;;6.40;71.50;;;;;;5033458;28;20622;-82
2024/02/23 01:01:00;;;;;;;3.23;1.10;;;6.30;80.10;;;;;;5032177;28;20180;-84
2024/02/23 01:03:25;;;;;;;6.33;1.30;;;6.30;84.50;;;;;;5033579;28;20209;-84
2024/02/23 01:05:51;;;;;;;3.07;1.17;;;6.30;83.20;;;;;;5034011;28;20174;-83
2024/02/23 01:08:17;;;;;;;2.77;0.93;;;6.30;84.30;;;;;;5033027;28;20264;-83
2024/02/23 01:10:44;;;;;;;3.67;0.90;;;6.30;83.60;;;;;;5032875;28;20340;-84
2024/02/23 01:13:09;;;;;;;3.30;1.07;;;6.30;81.20;;;;;;5032658;28;20173;-85
2024/02/23 01:15:35;;;;;;;6.47;1.30;;;6.20;85.80;;;;;;5033353;28;20649;-84
2024/02/23 01:18:01;;;;;;;2.87;0.97;;;6.20;87.80;;;;;;5032544;28;20174;-83
2024/02/23 01:20:26;;;;;;;2.40;0.97;;;6.20;83.60;;;;;;5033746;28;20183;-84
2024/02/23 01:22:52;;;;;;;3.63;1.50;;;6.10;82.80;;;;;;5034005;28;20242;-84
2024/02/23 01:25:18;;;;;;;5.97;1.17;;;6.20;80.30;;;;;;5033618;28;20194;-84
2024/02/23 01:27:46;;;;;;;4.87;1.10;;;6.30;74.30;;;;;;5033149;28;20216;-84
2024/02/23 01:30:12;;;;;;;4.37;1.30;;;6.20;72.30;;;;;;5032391;28;20198;-83
2024/02/23 01:32:38;;;;;;;4.13;1.00;;;6.20;71.90;;;;;;5033010;28;20609;-83
2024/02/23 01:35:05;;;;;;;2.60;1.20;;;6.30;72.50;;;;;;5031395;28;20205;-82
2024/02/23 01:37:31;;;;;;;2.77;1.13;;;6.20;69.00;;;;;;5032650;28;20693;-83
2024/02/23 01:39:59;;;;;;;4.17;1.50;;;6.30;65.60;;;;;;5033086;28;20266;-83
2024/02/23 01:42:25;;;;;;;3.63;1.03;;;6.30;60.40;;;;;;5031380;28;20514;-83
2024/02/23 01:44:56;;;;;;;2.93;1.07;;;6.30;56.60;;;;;;5032615;28;20177;-83
2024/02/23 01:47:23;;;;;;;2.40;1.10;;;6.30;53.40;;;;;;5033259;28;20166;-83
2024/02/23 01:49:50;;;;;;;5.17;1.30;;;6.30;53.90;;;;;;5032088;28;20717;-83
2024/02/23 01:52:16;;;;;;;4.00;1.10;;;6.40;49.20;;;;;;5032379;28;20204;-84
2024/02/23 01:54:42;;;;;;;5.57;1.43;;;6.40;51.20;;;;;;5032392;28;20257;-84
2024/02/23 01:57:09;;;;;;;4.90;1.30;;;6.40;52.80;;;;;;5033249;28;20177;-84
2024/02/23 01:59:38;;;;;;;3.87;1.20;;;6.40;50.00;;;;;;5031658;28;20174;-83
2024/02/23 02:02:04;;;;;;;4.10;1.57;;;6.50;45.10;;;;;;5032479;28;20184;-85
2024/02/23 02:04:30;;;;;;;4.13;1.43;;;6.50;47.40;;;;;;5031737;28;20181;-84
2024/02/23 02:06:59;;;;;;;7.80;1.70;;;6.40;50.10;;;;;;5031072;28;20179;-83
2024/02/23 02:09:25;;;;;;;6.27;2.13;;;6.40;50.90;;;;;;5032303;28;20180;-83
2024/02/23 02:11:51;;;;;;;4.17;1.33;;;6.40;51.10;;;;;;5032213;28;20205;-83
2024/02/23 02:14:17;;;;;;;6.40;1.70;;;6.50;49.70;;;;;;5031390;28;20174;-84
2024/02/23 02:16:46;;;;;;;5.60;1.43;;;6.50;47.30;;;;;;5031673;28;20181;-82
2024/02/23 02:19:14;;;;;;;5.27;1.10;;;6.50;44.50;;;;;;5030739;28;20286;-83
2024/02/23 02:21:40;;;;;;;6.67;1.30;;;6.40;46.10;;;;;;5032020;28;20177;-83
2024/02/23 02:24:07;;;;;;;4.77;1.30;;;6.40;52.50;;;;;;5031531;28;20325;-82
2024/02/23 02:26:32;;;;;;;6.53;1.47;;;6.40;51.40;;;;;;5031847;28;20182;-84
2024/02/23 02:28:58;;;;;;;5.23;1.47;;;6.40;52.90;;;;;;5032701;28;20204;-83
2024/02/23 02:31:23;;;;;;;5.30;1.60;;;6.50;54.80;;;;;;5032053;28;20174;-84
2024/02/23 02:33:49;;;;;;;4.63;1.30;;;6.40;53.00;;;;;;5031826;28;20591;-84
2024/02/23 02:36:15;;;;;;;5.53;1.87;;;6.40;51.70;;;;;;5032094;28;20184;-84
2024/02/23 02:38:41;;;;;;;6.83;1.50;;;6.40;49.20;;;;;;5033084;28;20165;-84
2024/02/23 02:41:06;;;;;;;5.47;1.70;;;6.40;50.60;;;;;;5031358;28;20189;-84
2024/02/23 02:43:32;;;;;;;5.43;2.10;;;6.50;47.60;;;;;;5031317;28;20213;-82
2024/02/23 02:45:58;;;;;;;5.13;1.83;;;6.40;48.60;;;;;;5031546;28;20268;-83
2024/02/23 02:48:24;;;;;;;5.80;1.40;;;6.50;50.90;;;;;;5032054;28;20170;-84
2024/02/23 02:50:51;;;;;;;6.33;1.57;;;6.40;50.70;;;;;;5031349;28;20760;-83
2024/02/23 02:53:17;;;;;;;6.20;1.90;;;6.50;47.90;;;;;;5031734;28;20185;-83
2024/02/23 02:55:43;;;;;;;4.70;1.20;;;6.50;46.20;;;;;;5031280;28;20182;-83
2024/02/23 02:58:09;;;;;;;5.33;1.40;;;6.50;41.70;;;;;;5031197;28;20679;-83
2024/02/23 03:00:34;;;;;;;5.43;1.50;;;6.70;39.70;;;;;;5030520;28;20186;-83
2024/02/23 03:03:00;;;;;;;4.70;1.30;;;6.50;35.90;;;;;;5032235;28;20205;-83
2024/02/23 03:05:26;;;;;;;5.80;1.40;;;6.60;31.10;;;;;;5030827;28;20240;-83
2024/02/23 03:07:53;;;;;;;6.60;1.53;;;6.70;32.00;;;;;;5031706;28;20205;-83
2024/02/23 03:10:18;;;;;;;6.47;1.73;;;6.60;32.00;;;;;;5031491;28;20239;-83
2024/02/23 03:12:44;;;;;;;5.50;1.97;;;6.70;23.30;;;;;;5032554;28;20181;-83
2024/02/23 03:15:10;;;;;;;7.30;1.80;;;6.70;22.90;;;;;;5031573;28;20588;-84
2024/02/23 03:17:36;;;;;;;6.37;1.47;;;6.80;21.50;;;;;;5031373;28;20701;-83
2024/02/23 03:20:05;;;;;;;5.77;1.50;;;6.80;19.60;;;;;;5031825;28;20285;-83
2024/02/23 03:22:31;;;;;;;3.67;1.40;;;6.60;21.60;;;;;;5030355;28;20288;-83
2024/02/23 03:24:56;;;;;;;5.60;1.50;;;6.60;24.30;;;;;;5030228;28;20284;-83
2024/02/23 03:27:28;;;;;;;4.47;1.40;;;6.60;22.10;;;;;;5031049;28;20182;-83
2024/02/23 03:29:54;;;;;;;5.27;1.63;;;6.70;23.00;;;;;;5032715;28;20198;-82
2024/02/23 03:32:20;;;;;;;6.13;1.43;;;6.80;19.00;;;;;;5030398;28;20214;-82
2024/02/23 03:34:45;;;;;;;5.07;1.43;;;6.60;18.40;;;;;;5031301;28;20534;-82
2024/02/23 03:37:11;;;;;;;8.77;1.70;;;6.90;18.00;;;;;;5030802;28;20706;-82
2024/02/23 03:39:37;;;;;;;5.77;1.77;;;6.70;19.60;;;;;;5031425;28;20192;-81
2024/02/23 03:42:04;;;;;;;5.33;1.70;;;6.60;22.90;;;;;;5031797;28;20569;-83
2024/02/23 03:44:31;;;;;;;5.60;2.03;;;6.60;22.00;;;;;;5031457;28;20312;-84
2024/02/23 03:46:57;;;;;;;5.73;2.40;;;6.60;23.30;;;;;;5031479;28;20546;-83
2024/02/23 03:49:22;;;;;;;5.00;1.80;;;6.60;23.10;;;;;;5032636;28;20177;-83
2024/02/23 03:51:48;;;;;;;4.37;1.83;;;6.60;22.10;;;;;;5032176;28;20219;-81
2024/02/23 03:54:14;;;;;;;5.37;1.60;;;6.60;21.50;;;;;;5030763;28;20184;-82
2024/02/23 03:56:43;;;;;;;6.17;1.90;;;6.60;21.70;;;;;;5030840;28;20187;-83
2024/02/23 03:59:09;;;;;;;6.00;2.00;;;6.70;21.30;;;;;;5029639;28;20183;-84
2024/02/23 04:01:39;;;;;;;7.97;2.27;;;6.70;18.30;;;;;;5029216;28;20232;-83
2024/02/23 04:04:05;;;;;;;5.90;1.90;;;6.70;15.60;;;;;;5029986;28;20213;-83
2024/02/23 04:06:31;;;;;;;5.37;1.63;;;6.70;16.30;;;;;;5030127;28;20284;-82
2024/02/23 04:08:58;;;;;;;9.03;2.10;;;6.70;15.10;;;;;;5029446;28;20673;-83
2024/02/23 04:11:23;;;;;;;5.63;1.93;;;6.70;14.50;;;;;;5030768;28;20204;-83
2024/02/23 04:13:49;;;;;;;6.90;1.90;;;6.80;13.00;;;;;;5030494;28;20178;-83
2024/02/23 04:16:15;;;;;;;8.13;2.07;;;6.70;16.10;;;;;;5030641;28;20608;-85
2024/02/23 04:18:40;;;;;;;5.70;1.50;;;6.80;13.50;;;;;;5030559;28;20194;-83
2024/02/23 04:21:06;;;;;;;4.40;1.60;;;6.80;13.60;;;;;;5029892;28;20235;-83
2024/02/23 04:23:32;;;;;;;3.93;1.47;;;6.80;10.40;;;;;;5030293;28;20209;-83
2024/02/23 04:25:58;;;;;;;7.53;2.13;;;6.80;12.50;;;;;;5030940;28;20604;-83
2024/02/23 04:28:26;;;;;;;5.03;1.73;;;6.90;3.30;;;;;;5030452;28;20242;-83
2024/02/23 04:30:52;;;;;;;2.70;1.50;;;6.80;4.90;;;;;;5033387;28;20170;-83
2024/02/23 04:33:17;;;;;;;4.90;1.60;;;6.90;4.20;;;;;;5032544;28;20181;-83
2024/02/23 04:35:43;;;;;;;7.03;2.07;;;6.80;2.80;;;;;;5034107;28;20174;-84
2024/02/23 04:38:08;;;;;;;6.60;1.77;;;6.80;3.50;;;;;;5035139;28;20170;-82
2024/02/23 04:40:34;;;;;;;8.37;1.80;;;6.80;3.20;;;;;;5031323;28;20282;-83
2024/02/23 04:43:00;;;;;;;6.73;1.70;;;6.80;8.90;;;;;;5035181;28;20308;-83
2024/02/23 04:45:25;;;;;;;9.57;1.40;;;6.60;10.20;;;;;;5033670;28;20196;-83
2024/02/23 04:47:51;;;;;;;11.27;1.87;;;6.70;9.10;;;;;;5034043;28;20173;-84
2024/02/23 04:50:16;;;;;;;5.83;1.60;;;6.70;8.20;;;;;;5032756;28;20177;-83
2024/02/23 04:52:42;;;;;;;8.00;1.60;;;6.80;7.00;;;;;;5033323;28;20197;-82
2024/02/23 04:55:08;;;;;;;7.90;2.03;;;6.80;3.80;;;;;;5035441;28;20268;-83
2024/02/23 04:57:33;;;;;;;10.03;1.97;;;6.70;6.10;;;;;;5033969;28;20177;-84
2024/02/23 04:59:59;;;;;;;7.97;2.97;;;6.80;3.30;;;;;;5033297;28;20279;-83
2024/02/23 05:02:28;;;;;;;7.90;2.67;;;6.70;5.70;;;;;;5034044;28;20201;-83
2024/02/23 05:04:54;;;;;;;7.60;2.47;;;6.70;7.30;;;;;;5033236;28;20193;-83
2024/02/23 05:07:19;;;;;;;12.97;3.47;;;6.70;7.30;;;;;;5032816;28;20178;-83
2024/02/23 05:09:45;;;;;;;6.83;2.93;;;6.70;9.20;;;;;;5033643;28;20273;-82
2024/02/23 05:12:10;;;;;;;8.30;3.07;;;6.80;10.00;;;;;;5033233;28;20554;-82
2024/02/23 05:14:36;;;;;;;5.37;2.10;;;6.70;9.90;;;;;;5034636;28;20205;-82
2024/02/23 05:17:03;;;;;;;7.17;2.73;;;6.70;10.40;;;;;;5033397;28;20180;-83
2024/02/23 05:19:29;;;;;;;5.17;1.87;;;6.70;10.30;;;;;;5033378;28;20754;-84
2024/02/23 05:21:54;;;;;;;8.03;2.40;;;6.70;11.30;;;;;;5034728;28;20244;-84
2024/02/23 05:24:20;;;;;;;6.40;1.57;;;6.70;11.50;;;;;;5032535;28;20244;-82
2024/02/23 05:26:46;;;;;;;6.07;2.27;;;6.70;12.60;;;;;;5049991;28;20229;-83
2024/02/23 05:29:12;;;;;;;5.67;1.73;;;6.60;10.40;;;;;;5032592;28;20181;-83
2024/02/23 05:31:52;;;;;;;6.63;1.77;;;6.60;9.40;;;;;;5032952;28;20634;-83
2024/02/23 05:34:18;;;;;;;6.67;1.90;;;6.60;9.30;;;;;;5034317;28;20169;-83
2024/02/23 05:36:45;;;;;;;5.13;1.80;;;6.60;9.40;;;;;;5033267;28;20264;-83
2024/02/23 05:39:12;;;;;;;8.60;2.40;;;6.60;8.90;;;;;;5032675;28;20514;-83
2024/02/23 05:41:42;;;;;;;6.73;2.30;;;6.60;9.80;;;;;;5030940;28;20209;-83
2024/02/23 05:44:08;;;;;;;4.97;1.67;;;6.60;9.50;;;;;;5032117;28;20209;-82
2024/02/23 05:46:34;;;;;;;5.37;1.97;;;6.60;11.40;;;;;;5032748;28;20214;-83
2024/02/23 05:49:01;;;;;;;6.20;2.10;;;6.70;13.00;;;;;;5032130;28;20177;-82
2024/02/23 05:51:29;;;;;;;6.13;2.10;;;6.60;14.00;;;;;;5033028;28;20170;-82
2024/02/23 05:53:54;;;;;;;7.47;2.03;;;6.60;14.30;;;;;;5031077;28;20182;-83
2024/02/23 05:56:20;;;;;;;9.57;2.43;;;6.60;14.90;;;;;;5032129;28;20212;-83
2024/02/23 05:58:46;;;;;;;9.67;2.67;;;6.70;14.20;;;;;;5032728;28;20217;-84
2024/02/23 06:01:11;;;;;;;6.70;2.33;;;6.60;15.10;;;;;;5031689;28;20280;-83
2024/02/23 06:03:37;;;;;;;6.47;2.10;;;6.50;15.50;;;;;;5032014;28;20697;-83
2024/02/23 06:06:08;;;;;;;6.13;2.10;;;6.60;16.70;;;;;;5030736;28;20182;-83
2024/02/23 06:08:33;;;;;;;4.63;1.57;;;6.50;15.50;;;;;;5031616;28;20183;-82
2024/02/23 06:10:59;;;;;;;6.80;2.30;;;6.50;16.80;;;;;;5032323;28;20552;-83
2024/02/23 06:13:25;;;;;;;7.90;1.80;;;6.50;16.10;;;;;;5031930;28;20186;-82
2024/02/23 06:15:51;;;;;;;6.83;2.03;;;6.60;15.90;;;;;;5032172;28;20173;-83
2024/02/23 06:18:17;;;;;;;9.40;2.47;;;6.50;15.40;;;;;;5032015;28;20173;-83
2024/02/23 06:20:43;;;;;;;8.03;2.07;;;6.60;15.50;;;;;;5031639;28;20224;-83
2024/02/23 06:23:08;;;;;;;3.93;1.90;;;6.60;13.50;;;;;;5032113;28;20198;-83
2024/02/23 06:25:34;;;;;;;9.60;2.60;;;6.60;13.60;;;;;;5031510;28;20209;-83
2024/02/23 06:28:00;;;;;;;4.40;1.93;;;6.60;9.80;;;;;;5031253;28;20227;-83
2024/02/23 06:30:25;;;;;;;8.43;1.93;;;6.70;10.80;;;;;;5030869;28;20172;-83
2024/02/23 06:32:51;;;;;;;5.80;1.70;;;6.60;11.30;;;;;;5032173;28;20646;-85
2024/02/23 06:35:17;;;;;;;4.60;1.73;;;6.60;12.60;;;;;;5031179;28;20178;-83
2024/02/23 06:37:42;;;;;;;4.40;1.93;;;6.60;12.60;;;;;;5032156;28;20277;-82
2024/02/23 06:40:08;;;;;;;8.80;2.10;;;6.70;9.30;;;;;;5031320;28;20166;-81
2024/02/23 06:42:34;;;;;;;9.37;2.30;;;6.70;9.20;;;;;;5029567;28;20228;-84
2024/02/23 06:44:59;;;;;;;9.67;2.70;;;6.70;10.40;;;;;;5031408;28;20182;-84
2024/02/23 06:47:25;;;;;;;7.37;2.00;;;6.70;10.60;;;;;;5030534;28;20170;-83
2024/02/23 06:49:51;;;;;;;6.63;1.90;;;6.80;8.30;;;;;;5031362;28;20681;-84
2024/02/23 06:52:17;;;;;;;6.57;1.97;;;6.80;7.30;;;;;;5031184;28;20170;-82
2024/02/23 06:54:43;;;;;;;5.60;1.80;;;6.90;8.00;;;;;;5031213;28;20665;-82
2024/02/23 06:57:09;;;;;;;6.57;1.93;;;6.90;8.50;;;;;;5031247;28;20252;-80
2024/02/23 06:59:35;;;;;;;12.10;3.70;;;6.80;8.10;;;;;;5030364;28;20552;-83
2024/02/23 07:02:01;;;;;;;9.33;1.83;;;6.90;9.20;;;;;;5026653;28;20171;-84
2024/02/23 07:04:28;;;;;;;8.07;2.40;;;6.90;9.00;;;;;;5008726;28;20245;-84
2024/02/23 07:06:54;;;;;;;8.07;2.60;;;6.90;6.30;;;;;;5010523;28;20162;-81
2024/02/23 07:09:19;;;;;;;9.57;2.40;;;7.00;7.10;;;;;;5010038;28;20224;-81
2024/02/23 07:11:45;;;;;;;9.93;2.10;;;7.00;6.90;;;;;;5010971;28;20266;-83
2024/02/23 07:14:14;;;;;;;7.17;1.83;;;7.00;5.10;;;;;;5011375;28;20542;-83
2024/02/23 07:16:40;;;;;;;8.60;2.80;;;6.90;5.70;;;;;;5009778;28;20184;-83
2024/02/23 07:19:07;;;;;;;9.07;2.50;;;7.00;3.80;;;;;;5005046;28;20204;-82
2024/02/23 07:21:33;;;;;;;9.50;2.63;;;7.00;6.00;;;;;;5046802;28;20257;-83
2024/02/23 07:23:59;;;;;;;5.97;2.17;;;7.10;6.60;;;;;;5033145;28;20244;-83
2024/02/23 07:26:25;;;;;;;10.20;2.77;;;7.00;5.50;;;;;;5047380;28;20492;-82
2024/02/23 07:28:50;;;;;;;8.47;2.20;;;7.00;1.90;;;;;;5028260;28;20185;-83
2024/02/23 07:31:16;;;;;;;9.53;2.87;;;7.00;1.00;;;;;;5031607;28;20185;-83
2024/02/23 07:33:43;;;;;;;7.03;2.20;;;7.10;1.70;;;;;;5046413;28;20175;-83
2024/02/23 07:36:17;;;;;;;7.90;2.33;;;7.10;2.30;;;;;;5030792;28;20192;-82
2024/02/23 07:38:46;;;;;;;7.27;2.70;;;7.20;1.00;;;;;;5027642;28;20263;-80
2024/02/23 07:41:13;;;;;;;9.20;1.80;;;7.10;1.00;;;;;;5048439;28;20199;-83
2024/02/23 07:43:39;;;;;;;7.07;2.07;;;7.20;1.00;;;;;;5038775;28;20213;-82
2024/02/23 07:46:08;;;;;;;7.90;2.30;;;7.30;1.00;;;;;;5059663;28;20694;-83
2024/02/23 07:48:35;;;;;;;10.73;2.17;;;7.30;1.00;;;;;;5041617;28;20223;-83
2024/02/23 07:51:02;;;;;;;5.13;1.90;;;7.40;1.00;;;;;;5045702;28;20238;-84
2024/02/23 07:53:27;;;;;;;8.00;2.53;;;7.30;1.00;;;;;;5044749;28;20192;-84
2024/02/23 07:55:53;;;;;;;8.73;2.03;;;7.40;1.00;;;;;;5036925;28;20180;-83
2024/02/23 07:58:19;;;;;;;5.83;2.07;;;7.30;1.00;;;;;;5047003;28;20620;-84
2024/02/23 08:00:44;;;;;;;7.67;2.20;;;7.30;1.00;;;;;;5037788;28;20185;-84
2024/02/23 08:03:10;;;;;;;8.30;2.20;;;7.40;1.00;;;;;;5039633;28;20200;-83
2024/02/23 08:05:36;;;;;;;6.30;2.07;;;7.40;1.00;;;;;;5051377;28;20184;-84
2024/02/23 08:08:02;;;;;;;5.57;2.20;;;7.30;5.90;;;;;;5031532;28;20177;-83
2024/02/23 08:10:28;;;;;;;11.77;3.00;;;7.30;16.70;;;;;;5030928;28;20655;-82
2024/02/23 08:12:54;;;;;;;5.83;2.27;;;7.20;27.30;;;;;;5061406;28;20253;-84
2024/02/23 08:15:19;;;;;;;6.23;1.87;;;7.20;32.80;;;;;;5046391;28;20180;-84
2024/02/23 08:17:45;;;;;;;7.47;1.97;;;7.10;36.40;;;;;;5032982;28;20200;-83
2024/02/23 08:20:11;;;;;;;7.97;2.10;;;7.10;41.30;;;;;;5040963;28;20267;-82
2024/02/23 08:22:36;;;;;;;9.37;1.70;;;7.00;47.90;;;;;;5050536;28;20209;-83
2024/02/23 08:25:02;;;;;;;9.27;2.63;;;6.90;50.40;;;;;;5049438;28;20212;-82
2024/02/23 08:27:28;;;;;;;8.17;1.97;;;6.90;49.70;;;;;;5049930;28;20220;-82
2024/02/23 08:29:54;;;;;;;10.83;2.57;;;6.90;50.10;;;;;;5044066;28;20223;-82
2024/02/23 08:32:20;;;;;;;6.00;1.90;;;6.90;53.40;;;;;;5044886;28;20634;-84
2024/02/23 08:34:46;;;;;;;6.07;1.67;;;6.90;59.60;;;;;;5047782;28;20522;-82
2024/02/23 08:37:12;;;;;;;9.70;2.47;;;6.80;66.70;;;;;;5043194;28;20212;-81
2024/02/23 08:39:38;;;;;;;9.67;2.53;;;6.80;68.60;;;;;;5040207;28;20212;-81
2024/02/23 08:42:04;;;;;;;8.53;2.30;;;6.80;75.40;;;;;;5041835;28;20180;-81
2024/02/23 08:44:29;;;;;;;4.77;1.60;;;6.70;75.90;;;;;;5038010;28;20213;-82
2024/02/23 08:46:55;;;;;;;5.43;2.50;;;6.70;79.80;;;;;;5029977;28;20188;-81
2024/02/23 08:49:21;;;;;;;7.10;2.97;;;6.70;82.40;;;;;;5051435;28;20185;-82
2024/02/23 08:51:46;;;;;;;8.00;2.60;;;6.70;79.90;;;;;;5029948;28;20178;-80
2024/02/23 08:54:12;;;;;;;9.00;2.53;;;6.70;83.50;;;;;;5046496;28;20646;-82
2024/02/23 08:56:39;;;;;;;7.10;1.90;;;6.80;83.30;;;;;;5046318;28;20205;-81
2024/02/23 08:59:05;;;;;;;6.63;1.70;;;6.80;79.30;;;;;;5046653;28;20231;-81
2024/02/23 09:01:30;;;;;;;7.57;2.43;;;6.70;80.50;;;;;;5062421;28;20284;-81
2024/02/23 09:03:56;;;;;;;7.63;2.97;;;6.70;82.10;;;;;;5049659;28;20224;-82
2024/02/23 09:06:22;;;;;;;6.03;2.00;;;6.80;84.30;;;;;;5050260;28;20177;-82
2024/02/23 09:08:47;;;;;;;5.03;2.53;;;6.90;85.20;;;;;;5032290;28;20882;-82
2024/02/23 09:11:15;;;;;;;8.90;2.30;;;6.90;80.80;;;;;;5039683;28;20661;-82
2024/02/23 09:13:42;;;;;;;6.27;1.90;;;6.80;79.80;;;;;;5034208;28;20181;-81
2024/02/23 09:16:08;;;;;;;6.10;2.03;;;6.80;79.10;;;;;;5029831;28;20200;-80
2024/02/23 09:18:35;;;;;;;7.17;2.37;;;6.80;75.40;;;;;;5043444;28;20198;-81
2024/02/23 09:21:00;;;;;;;6.57;2.57;;;6.80;71.30;;;;;;5029117;28;20197;-83
2024/02/23 09:23:26;;;;;;;7.73;2.10;;;6.90;70.30;;;;;;5044412;28;20689;-81
2024/02/23 09:25:52;;;;;;;7.37;2.37;;;7.10;66.20;;;;;;5045431;28;20657;-82
2024/02/23 09:28:18;;;;;;;7.90;2.10;;;7.00;65.90;;;;;;5047671;28;20207;-81
2024/02/23 09:30:43;;;;;;;5.27;2.20;;;7.10;67.80;;;;;;5029883;28;20173;-82
2024/02/23 09:33:09;;;;;;;6.30;2.37;;;7.10;63.60;;;;;;5049659;28;20219;-81
2024/02/23 09:35:34;;;;;;;9.27;3.20;;;7.20;60.60;;;;;;5049779;28;20173;-82
2024/02/23 09:38:00;;;;;;;10.57;2.23;;;7.20;64.40;;;;;;5038551;28;20259;-81
2024/02/23 09:40:26;;;;;;;6.50;2.57;;;7.30;62.10;;;;;;5029887;28;20586;-81
2024/02/23 09:42:57;;;;;;;8.43;2.50;;;7.30;64.70;;;;;;5045439;28;20197;-81
2024/02/23 09:45:29;;;;;;;9.67;2.60;;;7.40;59.20;;;;;;5030641;28;20177;-83
2024/02/23 09:47:57;;;;;;;10.17;2.90;;;7.50;52.20;;;;;;5045116;28;20173;-83
2024/02/23 09:50:24;;;;;;;6.03;2.80;;;7.50;53.00;;;;;;5028252;28;20177;-82
2024/02/23 09:52:50;;;;;;;6.73;2.90;;;7.80;50.10;;;;;;5030646;28;20201;-83
2024/02/23 09:55:23;;;;;;;7.43;2.83;;;7.60;52.00;;;;;;5030093;28;20182;-83
2024/02/23 09:57:54;;;;;;;8.97;2.90;;;7.60;49.50;;;;;;5029864;28;20264;-82
2024/02/23 10:00:20;;;;;;;7.33;2.37;;;7.60;46.50;;;;;;5045291;28;20181;-84
2024/02/23 10:02:46;;;;;;;7.87;2.57;;;7.70;43.90;;;;;;5062998;28;20295;-83
2024/02/23 10:05:13;;;;;;;5.10;2.40;;;7.70;39.20;;;;;;5047854;28;20544;-82
2024/02/23 10:07:40;;;;;;;8.73;2.30;;;7.80;31.70;;;;;;5050207;28;20637;-82
2024/02/23 10:10:10;;;;;;;7.07;2.30;;;7.60;24.10;;;;;;5029221;28;20182;-83
2024/02/23 10:12:36;;;;;;;6.47;2.60;;;7.70;25.90;;;;;;5028867;28;20438;-82
2024/02/23 10:15:05;;;;;;;8.33;2.37;;;7.90;29.90;;;;;;5045468;28;20182;-81
2024/02/23 10:17:32;;;;;;;7.60;2.60;;;7.70;29.80;;;;;;5045684;28;20176;-83
2024/02/23 10:19:59;;;;;;;10.03;2.30;;;8.00;25.00;;;;;;5032045;28;20211;-83
2024/02/23 10:22:25;;;;;;;5.93;2.47;;;8.00;25.00;;;;;;5032378;28;20232;-83
2024/02/23 10:24:51;;;;;;;8.07;2.67;;;8.00;27.00;;;;;;5045477;28;20681;-83
2024/02/23 10:27:17;;;;;;;8.97;3.23;;;8.00;23.90;;;;;;5043657;28;20186;-82
2024/02/23 10:29:43;;;;;;;8.97;2.83;;;8.10;22.90;;;;;;5044936;28;20181;-82
2024/02/23 10:32:14;;;;;;;11.87;2.90;;;8.00;21.30;;;;;;5040202;28;20661;-84
2024/02/23 10:34:42;;;;;;;9.30;3.93;;;8.10;20.60;;;;;;5028522;28;20215;-80
2024/02/23 10:37:08;;;;;;;8.53;3.23;;;8.20;16.30;;;;;;5029277;28;20173;-81
2024/02/23 10:39:37;;;;;;;8.63;3.33;;;8.10;12.10;;;;;;5038045;28;20189;-81
2024/02/23 10:42:07;;;;;;;9.30;3.23;;;8.10;12.80;;;;;;5031539;28;20181;-81
2024/02/23 10:44:32;;;;;;;7.47;3.10;;;8.10;11.50;;;;;;5035975;28;20217;-80
2024/02/23 10:46:59;;;;;;;5.90;2.80;;;8.10;10.10;;;;;;5043289;28;20248;-81
2024/02/23 10:49:28;;;;;;;9.03;3.17;;;8.20;5.40;;;;;;5043968;28;20192;-82
2024/02/23 10:51:54;;;;;;;11.03;3.60;;;8.30;1.00;;;;;;5045589;28;20809;-81
2024/02/23 10:54:21;;;;;;;7.87;3.50;;;8.30;1.00;;;;;;5043993;28;20591;-82
2024/02/23 10:56:48;;;;;;;8.50;3.10;;;8.50;1.00;;;;;;5061064;28;20208;-83
2024/02/23 10:59:18;;;;;;;8.63;3.30;;;8.50;1.00;;;;;;5043362;28;20178;-90
2024/02/23 11:01:47;;;;;;;5.70;2.57;;;8.60;1.00;;;;;;5047681;28;20181;-81
2024/02/23 11:04:13;;;;;;;8.70;3.20;;;8.70;1.00;;;;;;5043487;28;20304;-83
2024/02/23 11:06:39;;;;;;;6.27;2.43;;;8.80;1.00;;;;;;5044500;28;20655;-82
2024/02/23 11:09:09;;;;;;;7.07;2.80;;;8.70;1.00;;;;;;5028520;28;20545;-82
2024/02/23 11:11:37;;;;;;;6.50;2.40;;;8.70;1.00;;;;;;5044884;28;20185;-82
2024/02/23 11:14:07;;;;;;;6.70;2.80;;;8.60;1.00;;;;;;5043826;28;20953;-82
2024/02/23 11:16:33;;;;;;;7.10;2.80;;;8.70;1.00;;;;;;5043777;28;20248;-83
2024/02/23 11:19:08;;;;;;;7.07;2.50;;;8.70;1.00;;;;;;5027388;28;20185;-82
2024/02/23 11:21:36;;;;;;;7.63;3.47;;;8.70;1.00;;;;;;5043430;28;20244;-82
2024/02/23 11:24:06;;;;;;;8.00;3.00;;;8.60;1.00;;;;;;5038051;28;20364;-83
2024/02/23 11:26:33;;;;;;;7.80;3.20;;;8.60;1.00;;;;;;5043447;28;20220;-82
2024/02/23 11:29:09;;;;;;;7.83;2.40;;;8.60;1.00;;;;;;5046507;28;20284;-83
2024/02/23 11:31:34;;;;;;;5.40;2.80;;;8.60;1.00;;;;;;5044003;28;20577;-80
2024/02/23 11:34:00;;;;;;;7.27;2.43;;;8.70;1.00;;;;;;5034995;28;20195;-86
2024/02/23 11:36:32;;;;;;;7.83;2.60;;;8.70;1.00;;;;;;5042687;28;20197;-83
2024/02/23 11:39:00;;;;;;;8.27;2.77;;;8.80;1.00;;;;;;5046415;28;20261;-83
2024/02/23 11:41:27;;;;;;;9.53;2.20;;;8.80;1.00;;;;;;5040534;28;20202;-83
2024/02/23 11:43:55;;;;;;;6.57;2.17;;;8.80;1.00;;;;;;5056500;28;20701;-84
2024/02/23 11:46:21;;;;;;;3.77;1.90;;;8.80;1.00;;;;;;5043861;28;20177;-81
2024/02/23 11:48:47;;;;;;;5.63;2.37;;;8.80;1.00;;;;;;5040084;28;20938;-82
2024/02/23 11:51:16;;;;;;;6.10;2.20;;;8.90;1.00;;;;;;5031686;28;20181;-82
2024/02/23 11:53:42;;;;;;;6.63;1.93;;;8.80;1.00;;;;;;5043831;28;20319;-81
2024/02/23 11:56:08;;;;;;;3.77;1.63;;;8.60;1.00;;;;;;5032819;28;20211;-82
2024/02/23 11:58:34;;;;;;;5.40;1.53;;;8.70;1.00;;;;;;5046632;28;20177;-82
2024/02/23 12:01:02;;;;;;;7.07;2.00;;;8.70;1.00;;;;;;5045317;28;20276;-83
2024/02/23 12:03:29;;;;;;;6.20;1.80;;;8.70;1.00;;;;;;5046199;28;20219;-85
2024/02/23 12:05:58;;;;;;;6.47;1.60;;;8.80;1.00;;;;;;5040958;28;20565;-89
2024/02/23 12:08:29;;;;;;;6.43;2.50;;;8.90;1.00;;;;;;5042850;28;20600;-81
2024/02/23 12:10:55;;;;;;;6.03;2.27;;;9.00;1.00;;;;;;5032268;28;20243;-82
2024/02/23 12:13:22;;;;;;;8.57;2.60;;;8.90;1.00;;;;;;5036084;28;20172;-83
2024/02/23 12:15:52;;;;;;;7.00;1.90;;;9.00;1.00;;;;;;5026880;28;20213;-83
2024/02/23 12:18:20;;;;;;;5.63;1.60;;;9.00;1.00;;;;;;5030616;28;20547;-85
2024/02/23 12:20:49;;;;;;;4.87;1.70;;;9.10;23.90;;;;;;5034525;28;20217;-83
2024/02/23 12:23:15;;;;;;;6.43;2.57;;;8.90;23.40;;;;;;5045620;28;20628;-83
2024/02/23 12:25:53;;;;;;;9.90;2.07;;;9.00;1.00;;;;;;5042133;28;20186;-84
2024/02/23 12:28:19;;;;;;;8.30;2.40;;;9.10;1.00;;;;;;5043452;28;20268;-84
2024/02/23 12:30:46;;;;;;;7.77;2.30;;;9.00;1.00;;;;;;5034724;28;20729;-82
2024/02/23 12:33:15;;;;;;;6.33;1.83;;;9.00;1.00;;;;;;5049906;28;20612;-83
2024/02/23 12:35:41;;;;;;;4.23;1.80;;;9.00;1.00;;;;;;5023428;28;20265;-84
2024/02/23 12:38:07;;;;;;;5.30;2.00;;;9.00;1.00;;;;;;5043228;28;20272;-83
2024/02/23 12:40:32;;;;;;;4.03;2.10;;;9.00;1.00;;;;;;5043499;28;20276;-83
2024/02/23 12:42:58;;;;;;;5.27;1.83;;;9.20;1.00;;;;;;5028218;28;20209;-84
2024/02/23 12:45:24;;;;;;;5.60;1.93;;;9.30;1.00;;;;;;5061452;28;20200;-83
2024/02/23 12:48:27;;;;;;;6.73;2.13;;;9.40;18.70;;;;;;5046597;28;20181;-87
2024/02/23 12:51:25;;;;;;;8.80;3.47;;;9.50;14.50;;;;;;5044890;28;20597;-85
2024/02/23 12:53:54;;;;;;;7.20;3.40;;;9.30;13.20;;;;;;5039134;28;20200;-86
2024/02/23 12:56:20;;;;;;;8.00;3.43;;;9.20;1.00;;;;;;5043951;28;20196;-82
2024/02/23 12:58:46;;;;;;;7.03;3.53;;;9.20;1.00;;;;;;5038714;28;20170;-84